M\t Procida — IBJT — position and weather

sailwx.info

Track history (hours):
 
Tides and Currents Weather Stations Pressure Air Temp Water Temp Dewpoint Dewpoint Depression Visibility Wind Speed Wind Dir Waves Ship Positions

M\t Procida

Last reported at 2018-Feb-19 17:04 UTC. Time now 2018-Feb-21 23:28 UTC.
Position N 56°02' W 003°42'.

Length 149 m; draft 8.6 m.

Type: Tanker. MMSI: 247258400.

Date/timePositionNaut miles runAvg speedWind from/ knotsBaromVisibWave heightAir tempDewpointWater temp
2018-Feb-19 17:04N 56°02' W 003°42'0 1.2
2018-Feb-19 17:00N 56°02' W 003°41'2 2.0
2018-Feb-19 15:53N 56°02' W 003°38'7 7.6
2018-Feb-19 15:00N 56°00' W 003°26'612.5
2018-Feb-19 14:30N 56°02' W 003°15'510.9
2018-Feb-19 14:00N 56°03' W 003°06'3 6.8
2018-Feb-19 13:30N 56°07' W 003°04'0 0.5
2018-Feb-19 12:59N 56°07' W 003°05'0 0.0
2018-Feb-19 12:29N 56°07' W 003°05'0 0.1
2018-Feb-19 11:59N 56°07' W 003°05'0 0.2
2018-Feb-19 11:29N 56°07' W 003°04'0 0.1
2018-Feb-19 10:59N 56°07' W 003°04'0 0.0
2018-Feb-19 10:29N 56°07' W 003°04'0 0.0
2018-Feb-19 09:59N 56°07' W 003°04'0 0.0
2018-Feb-19 09:29N 56°07' W 003°04'0 0.0
2018-Feb-19 08:59N 56°07' W 003°04'0 0.0
2018-Feb-19 08:29N 56°07' W 003°04'0 0.0
2018-Feb-19 07:59N 56°07' W 003°04'0 0.0
2018-Feb-19 07:29N 56°07' W 003°04'0 0.0
2018-Feb-19 06:59N 56°07' W 003°04'0 0.0
2018-Feb-19 06:29N 56°07' W 003°04'0 0.0
2018-Feb-19 05:59N 56°07' W 003°04'0 0.1
2018-Feb-19 05:29N 56°07' W 003°05'0 0.1
2018-Feb-19 04:59N 56°07' W 003°05'0 0.0
2018-Feb-19 04:29N 56°07' W 003°05'0 0.0
2018-Feb-19 03:59N 56°07' W 003°05'0 0.0
2018-Feb-19 03:29N 56°07' W 003°05'0 0.0
2018-Feb-19 02:59N 56°07' W 003°05'0 0.0
2018-Feb-19 02:29N 56°07' W 003°05'0 0.0
2018-Feb-19 01:59N 56°07' W 003°05'0 0.0
2018-Feb-19 01:29N 56°07' W 003°05'0 0.0
2018-Feb-19 00:59N 56°07' W 003°05'0 0.0
2018-Feb-19 00:29N 56°07' W 003°05'0 0.0
2018-Feb-18 23:59N 56°07' W 003°05'0 0.0
2018-Feb-18 23:29N 56°07' W 003°05'0 0.0
2018-Feb-18 22:59N 56°07' W 003°04'0 0.1
2018-Feb-18 22:29N 56°07' W 003°04'0 0.2
2018-Feb-18 21:59N 56°07' W 003°04'0 0.1
2018-Feb-18 21:29N 56°07' W 003°04'0 0.0
2018-Feb-18 20:59N 56°07' W 003°04'0 0.0
2018-Feb-18 20:29N 56°07' W 003°04'0 0.0
2018-Feb-18 19:59N 56°07' W 003°04'0 0.0
2018-Feb-18 19:29N 56°07' W 003°04'0 0.1
2018-Feb-18 18:59N 56°07' W 003°04'3 6.2
2018-Feb-18 18:30N 56°05' W 003°01'611.1
2018-Feb-18 18:00N 56°06' W 002°51'612.4
2018-Feb-18 17:30N 56°08' W 002°40'612.8
2018-Feb-18 17:01N 56°07' W 002°29'612.7
2018-Feb-18 16:30N 56°06' W 002°18'612.6
2018-Feb-18 16:00N 56°04' W 002°07'612.6
2018-Feb-18 15:30N 56°02' W 001°56'612.7
2018-Feb-18 15:00N 56°01' W 001°45'612.7
2018-Feb-18 14:30N 55°58' W 001°34'612.9
2018-Feb-18 14:00N 55°56' W 001°24'28710.4
2018-Feb-17 10:26N 51°46' E 002°38'512.0
2018-Feb-17 10:00N 51°42' E 002°41'611.0
2018-Feb-17 09:30N 51°36' E 002°43'511.1
2018-Feb-17 09:00N 51°31' E 002°41'611.6
2018-Feb-17 08:30N 51°25' E 002°43'5 9.9
2018-Feb-17 08:00N 51°22' E 002°49'713.4
2018-Feb-17 07:30N 51°24' E 002°59'713.3
2018-Feb-17 07:00N 51°24' E 003°10'714.6
2018-Feb-17 06:30N 51°25' E 003°22'714.7
2018-Feb-17 06:00N 51°26' E 003°33'5 9.6
2018-Feb-17 05:30N 51°26' E 003°41'611.9
2018-Feb-17 05:00N 51°21' E 003°47'611.9
2018-Feb-17 04:30N 51°23' E 003°56'4 8.3
2018-Feb-17 04:00N 51°25' E 004°02'5 9.3
2018-Feb-17 03:30N 51°22' E 004°08'3 6.7
2018-Feb-17 03:00N 51°22' E 004°13'3 5.4
2018-Feb-17 02:30N 51°21' E 004°17'0 0.0
2018-Feb-17 02:01N 51°21' E 004°17'0 0.7
2018-Feb-17 01:30N 51°21' E 004°18'1 2.5
2018-Feb-17 01:00N 51°20' E 004°19'2 4.7
2018-Feb-17 00:30N 51°17' E 004°20'1 2.5
2018-Feb-16 23:59N 51°16' E 004°21'0 0.0
2018-Feb-16 23:29N 51°16' E 004°21'0 0.0
2018-Feb-16 22:59N 51°16' E 004°21'0 0.0
2018-Feb-16 22:29N 51°16' E 004°21'0 0.0
2018-Feb-16 21:59N 51°16' E 004°21'0 0.0
2018-Feb-16 21:29N 51°16' E 004°21'0 0.0
2018-Feb-16 20:59N 51°16' E 004°21'0 0.0
2018-Feb-16 20:26N 51°16' E 004°21'0 0.0
2018-Feb-16 19:59N 51°16' E 004°21'0 0.0
2018-Feb-16 19:29N 51°16' E 004°21'0 0.0
2018-Feb-16 18:59N 51°16' E 004°21'0 0.0
2018-Feb-16 18:26N 51°16' E 004°21'0 0.0
2018-Feb-16 17:59N 51°16' E 004°21'0 0.0
2018-Feb-16 17:29N 51°16' E 004°21'0 0.0
2018-Feb-16 16:59N 51°16' E 004°21'0 0.0
2018-Feb-16 16:23N 51°16' E 004°21'0 0.0
2018-Feb-16 15:59N 51°16' E 004°21'0 0.0
2018-Feb-16 15:26N 51°16' E 004°21'0 0.0
2018-Feb-16 14:59N 51°16' E 004°21'0 0.0
2018-Feb-16 14:29N 51°16' E 004°21'0 0.0
2018-Feb-16 13:59N 51°16' E 004°21'0 0.0
2018-Feb-16 13:29N 51°16' E 004°21'0 0.0
2018-Feb-16 12:59N 51°16' E 004°21'0 0.0
2018-Feb-16 12:29N 51°16' E 004°21'0 0.0
2018-Feb-16 11:59N 51°16' E 004°21'0 0.0
2018-Feb-16 11:29N 51°16' E 004°21'0 0.0
2018-Feb-16 10:59N 51°16' E 004°21'0 0.0
2018-Feb-16 10:29N 51°16' E 004°21'0 0.0
2018-Feb-16 09:59N 51°16' E 004°21'0 0.0
2018-Feb-16 09:29N 51°16' E 004°21'0 0.0
2018-Feb-16 08:59N 51°16' E 004°21'0 0.0
2018-Feb-16 08:29N 51°16' E 004°21'0 0.0
2018-Feb-16 07:59N 51°16' E 004°21'0 0.0
2018-Feb-16 07:26N 51°16' E 004°21'0 0.0
2018-Feb-16 06:59N 51°16' E 004°21'0 0.0
2018-Feb-16 06:29N 51°16' E 004°21'0 0.0
2018-Feb-16 05:59N 51°16' E 004°21'0 0.0
2018-Feb-16 05:29N 51°16' E 004°21'0 0.0
2018-Feb-16 04:53N 51°16' E 004°21'0 0.0
2018-Feb-16 04:29N 51°16' E 004°21'0 0.0
2018-Feb-16 03:59N 51°16' E 004°21'0 0.0
2018-Feb-16 03:29N 51°16' E 004°21'0 0.0
2018-Feb-16 02:59N 51°16' E 004°21'0 0.0
2018-Feb-16 02:29N 51°16' E 004°21'0 0.0
2018-Feb-16 01:59N 51°16' E 004°21'0 0.0
2018-Feb-16 01:29N 51°16' E 004°21'0 0.0
2018-Feb-16 00:59N 51°16' E 004°21'0 0.0
2018-Feb-16 00:29N 51°16' E 004°21'0 0.6
2018-Feb-16 00:00N 51°16' E 004°21'3 6.1
2018-Feb-15 23:29N 51°19' E 004°19'2 3.1
2018-Feb-15 22:55N 51°21' E 004°18'0 0.0
2018-Feb-15 22:28N 51°21' E 004°18'0 0.0
2018-Feb-15 21:58N 51°21' E 004°18'0 0.0
2018-Feb-15 21:28N 51°21' E 004°18'0 0.0
2018-Feb-15 20:58N 51°21' E 004°18'0 0.0
2018-Feb-15 20:28N 51°21' E 004°18'0 0.0
2018-Feb-15 19:58N 51°21' E 004°18'0 0.0
2018-Feb-15 19:25N 51°21' E 004°18'0 0.0
2018-Feb-15 18:58N 51°21' E 004°18'0 0.0
2018-Feb-15 18:28N 51°21' E 004°18'0 0.0
2018-Feb-15 17:58N 51°21' E 004°18'0 0.0
2018-Feb-15 17:28N 51°21' E 004°18'0 0.0
2018-Feb-15 16:58N 51°21' E 004°18'0 0.0
2018-Feb-15 16:28N 51°21' E 004°18'0 0.0
2018-Feb-15 15:46N 51°21' E 004°18'0 0.0
2018-Feb-15 15:28N 51°21' E 004°18'0 0.0
2018-Feb-15 14:52N 51°21' E 004°18'0 0.0
2018-Feb-15 14:28N 51°21' E 004°18'0 0.0
2018-Feb-15 13:58N 51°21' E 004°18'0 0.0
2018-Feb-15 13:28N 51°21' E 004°18'0 0.0
2018-Feb-15 12:58N 51°21' E 004°18'0 0.0
2018-Feb-15 12:28N 51°21' E 004°18'0 0.0
2018-Feb-15 11:46N 51°21' E 004°18'0 0.0
2018-Feb-15 11:28N 51°21' E 004°18'0 0.0
2018-Feb-15 10:58N 51°21' E 004°18'0 0.0
2018-Feb-15 10:28N 51°21' E 004°18'0 0.0
2018-Feb-15 09:58N 51°21' E 004°18'0 0.0
2018-Feb-15 09:22N 51°21' E 004°18'0 0.0
2018-Feb-15 08:58N 51°21' E 004°18'0 0.0
2018-Feb-15 08:28N 51°21' E 004°18'0 0.0
2018-Feb-15 07:58N 51°21' E 004°18'0 0.0
2018-Feb-15 07:25N 51°21' E 004°18'0 0.0
2018-Feb-15 06:58N 51°21' E 004°18'0 0.0
2018-Feb-15 06:25N 51°21' E 004°18'0 0.0
2018-Feb-15 05:58N 51°21' E 004°18'0 0.0
2018-Feb-15 05:28N 51°21' E 004°18'0 0.0
2018-Feb-15 04:58N 51°21' E 004°18'0 0.0
2018-Feb-15 04:25N 51°21' E 004°18'0 0.0
2018-Feb-15 03:58N 51°21' E 004°18'0 0.0
2018-Feb-15 03:25N 51°21' E 004°18'0 0.0
2018-Feb-15 02:55N 51°21' E 004°18'0 0.0
2018-Feb-15 02:28N 51°21' E 004°18'0 0.0
2018-Feb-15 01:58N 51°21' E 004°18'0 0.0
2018-Feb-15 01:22N 51°21' E 004°18'0 0.0
2018-Feb-15 00:58N 51°21' E 004°18'0 0.0
2018-Feb-15 00:28N 51°21' E 004°18'0 0.0
2018-Feb-14 23:52N 51°21' E 004°18'0 0.0
2018-Feb-14 23:28N 51°21' E 004°18'0 0.0
2018-Feb-14 22:58N 51°21' E 004°18'0 0.0
2018-Feb-14 22:28N 51°21' E 004°18'0 0.0
2018-Feb-14 21:58N 51°21' E 004°18'0 0.0
2018-Feb-14 21:28N 51°21' E 004°18'0 0.0
2018-Feb-14 20:58N 51°21' E 004°18'0 0.0
2018-Feb-14 20:25N 51°21' E 004°18'0 0.0
2018-Feb-14 19:58N 51°21' E 004°18'0 0.0
2018-Feb-14 19:28N 51°21' E 004°18'0 0.0
2018-Feb-14 18:58N 51°21' E 004°18'0 0.0
2018-Feb-14 18:28N 51°21' E 004°18'0 0.0
2018-Feb-14 17:58N 51°21' E 004°18'0 0.0
2018-Feb-14 17:28N 51°21' E 004°18'0 0.0
2018-Feb-14 16:58N 51°21' E 004°18'0 0.0
2018-Feb-14 16:28N 51°21' E 004°18'0 0.0
2018-Feb-14 15:58N 51°21' E 004°18'0 0.0
2018-Feb-14 15:28N 51°21' E 004°18'0 0.0
2018-Feb-14 14:58N 51°21' E 004°18'0 0.0
2018-Feb-14 14:28N 51°21' E 004°18'0 0.0
2018-Feb-14 13:58N 51°21' E 004°18'0 0.0
2018-Feb-14 13:28N 51°21' E 004°18'0 0.0
2018-Feb-14 12:58N 51°21' E 004°18'0 0.0
2018-Feb-14 12:25N 51°21' E 004°18'0 0.0
2018-Feb-14 11:58N 51°21' E 004°18'0 0.0
2018-Feb-14 11:28N 51°21' E 004°18'0 0.0
2018-Feb-14 10:58N 51°21' E 004°18'0 0.0
2018-Feb-14 10:25N 51°21' E 004°18'0 0.0
2018-Feb-14 09:58N 51°21' E 004°18'0 0.0
2018-Feb-14 09:28N 51°21' E 004°18'0 0.0
2018-Feb-14 08:58N 51°21' E 004°18'0 0.0
2018-Feb-14 08:28N 51°21' E 004°18'0 0.0
2018-Feb-14 07:58N 51°21' E 004°18'0 0.0
2018-Feb-14 07:28N 51°21' E 004°18'0 0.0
2018-Feb-14 06:58N 51°21' E 004°18'0 0.0
2018-Feb-14 06:28N 51°21' E 004°18'0 0.0
2018-Feb-14 05:58N 51°21' E 004°18'0 0.0
2018-Feb-14 05:28N 51°21' E 004°18'0 0.0
2018-Feb-14 04:55N 51°21' E 004°18'0 0.0
2018-Feb-14 04:28N 51°21' E 004°18'0 0.0
2018-Feb-14 03:58N 51°21' E 004°18'0 0.0
2018-Feb-14 03:28N 51°21' E 004°18'0 0.0
2018-Feb-14 02:58N 51°21' E 004°18'0 0.0
2018-Feb-14 02:28N 51°21' E 004°18'0 0.0
2018-Feb-14 01:58N 51°21' E 004°18'0 0.0
2018-Feb-14 01:28N 51°21' E 004°18'0 0.0
2018-Feb-14 00:58N 51°21' E 004°18'0 0.0
2018-Feb-14 00:25N 51°21' E 004°18'0 0.0
2018-Feb-13 23:58N 51°21' E 004°18'0 0.0
2018-Feb-13 23:28N 51°21' E 004°18'0 0.0
2018-Feb-13 22:58N 51°21' E 004°18'0 0.0
2018-Feb-13 22:28N 51°21' E 004°18'0 0.0
2018-Feb-13 21:58N 51°21' E 004°18'0 0.0
2018-Feb-13 21:16N 51°21' E 004°18'0 0.0
2018-Feb-13 20:58N 51°21' E 004°18'0 0.0
2018-Feb-13 20:28N 51°21' E 004°18'0 0.0
2018-Feb-13 19:58N 51°21' E 004°18'0 0.0
2018-Feb-13 19:28N 51°21' E 004°18'0 0.0
2018-Feb-13 18:58N 51°21' E 004°18'0 0.0
2018-Feb-13 18:28N 51°21' E 004°18'0 0.0
2018-Feb-13 17:58N 51°21' E 004°18'0 0.0
2018-Feb-13 17:28N 51°21' E 004°18'0 0.0
2018-Feb-13 16:58N 51°21' E 004°18'0 0.0
2018-Feb-13 16:25N 51°21' E 004°18'0 0.0
2018-Feb-13 15:55N 51°21' E 004°18'0 0.0
2018-Feb-13 15:28N 51°21' E 004°18'0 0.0
2018-Feb-13 14:58N 51°21' E 004°18'0 0.0
2018-Feb-13 14:25N 51°21' E 004°18'0 0.0
2018-Feb-13 13:58N 51°21' E 004°18'0 0.0
2018-Feb-13 13:22N 51°21' E 004°18'0 0.0
2018-Feb-13 12:58N 51°21' E 004°18'0 0.0
2018-Feb-13 12:28N 51°21' E 004°18'0 0.0
2018-Feb-13 11:58N 51°21' E 004°18'0 0.0
2018-Feb-13 11:28N 51°21' E 004°18'0 0.0
2018-Feb-13 10:58N 51°21' E 004°18'0 0.0
2018-Feb-13 10:28N 51°21' E 004°18'0 0.0
2018-Feb-13 09:58N 51°21' E 004°18'0 0.0
2018-Feb-13 09:28N 51°21' E 004°18'0 0.0
2018-Feb-13 08:55N 51°21' E 004°18'0 0.0
2018-Feb-13 08:28N 51°21' E 004°18'0 0.0
2018-Feb-13 07:59N 51°21' E 004°18'1 2.0
2018-Feb-13 07:31N 51°20' E 004°18'3 7.0
2018-Feb-13 07:01N 51°17' E 004°21'1 1.4
2018-Feb-13 06:25N 51°16' E 004°21'0 0.0
2018-Feb-13 05:55N 51°16' E 004°21'0 0.0
2018-Feb-13 05:28N 51°16' E 004°21'0 0.0
2018-Feb-13 04:58N 51°16' E 004°21'0 0.0
2018-Feb-13 04:28N 51°16' E 004°21'0 0.0
2018-Feb-13 03:58N 51°16' E 004°21'0 0.0
2018-Feb-13 03:28N 51°16' E 004°21'0 0.0
2018-Feb-13 02:58N 51°16' E 004°21'0 0.0
2018-Feb-13 02:25N 51°16' E 004°21'0 0.0
2018-Feb-13 01:58N 51°16' E 004°21'0 0.0
2018-Feb-13 01:28N 51°16' E 004°21'0 0.0
2018-Feb-13 00:58N 51°16' E 004°21'0 0.0
2018-Feb-13 00:28N 51°16' E 004°21'0 0.0
2018-Feb-12 23:58N 51°16' E 004°21'0 0.0
2018-Feb-12 23:28N 51°16' E 004°21'0 0.0
2018-Feb-12 22:58N 51°16' E 004°21'0 0.0
2018-Feb-12 22:29N 51°16' E 004°21'0 0.0
2018-Feb-12 22:00N 51°16' E 004°21'0 0.0
2018-Feb-12 21:30N 51°16' E 004°21'0 0.0
2018-Feb-12 21:00N 51°16' E 004°21'0 0.0
2018-Feb-12 20:30N 51°16' E 004°21'0 0.0
2018-Feb-12 19:57N 51°16' E 004°21'0 0.0
2018-Feb-12 19:27N 51°16' E 004°21'0 0.0
2018-Feb-12 19:00N 51°16' E 004°21'0 0.0
2018-Feb-12 18:30N 51°16' E 004°21'0 0.0
2018-Feb-12 18:00N 51°16' E 004°21'0 0.0
2018-Feb-12 17:30N 51°16' E 004°21'0 0.0
2018-Feb-12 17:00N 51°16' E 004°21'0 0.0
2018-Feb-12 16:30N 51°16' E 004°21'0 0.0
2018-Feb-12 16:00N 51°16' E 004°21'0 0.0
2018-Feb-12 15:18N 51°16' E 004°21'0 0.0
2018-Feb-12 14:57N 51°16' E 004°21'0 0.0
2018-Feb-12 14:27N 51°16' E 004°21'0 0.0
2018-Feb-12 14:00N 51°16' E 004°21'0 0.0
2018-Feb-12 13:27N 51°16' E 004°21'0 0.0
2018-Feb-12 13:00N 51°16' E 004°21'0 0.0
2018-Feb-12 12:27N 51°16' E 004°21'0 0.0
2018-Feb-12 11:57N 51°16' E 004°21'0 0.0
2018-Feb-12 11:27N 51°16' E 004°21'0 0.0
2018-Feb-12 11:00N 51°16' E 004°21'0 0.0
2018-Feb-12 10:30N 51°16' E 004°21'0 0.0
2018-Feb-12 10:00N 51°16' E 004°21'0 0.0
2018-Feb-12 09:30N 51°16' E 004°21'0 0.0
2018-Feb-12 09:00N 51°16' E 004°21'0 0.0
2018-Feb-12 08:30N 51°16' E 004°21'0 0.0
2018-Feb-12 08:00N 51°16' E 004°21'0 0.0
2018-Feb-12 07:27N 51°16' E 004°21'0 0.0
2018-Feb-12 07:00N 51°16' E 004°21'0 0.0
2018-Feb-12 06:30N 51°16' E 004°21'0 0.0
2018-Feb-12 05:57N 51°16' E 004°21'0 0.0
2018-Feb-12 05:30N 51°16' E 004°21'0 0.0
2018-Feb-12 04:57N 51°16' E 004°21'0 0.0
2018-Feb-12 04:30N 51°16' E 004°21'0 0.0
2018-Feb-12 03:54N 51°16' E 004°21'0 0.0
2018-Feb-12 03:30N 51°16' E 004°21'0 0.0
2018-Feb-12 03:00N 51°16' E 004°21'0 0.0
2018-Feb-12 02:30N 51°16' E 004°21'0 0.0
2018-Feb-12 02:00N 51°16' E 004°21'0 0.0
2018-Feb-12 01:30N 51°16' E 004°21'0 0.0
2018-Feb-12 01:00N 51°16' E 004°21'0 0.0
2018-Feb-12 00:30N 51°16' E 004°21'0 0.0
2018-Feb-12 00:00N 51°16' E 004°21'0 0.0
2018-Feb-11 23:30N 51°16' E 004°21'0 0.0
2018-Feb-11 23:00N 51°16' E 004°21'0 0.0
2018-Feb-11 22:30N 51°16' E 004°21'0 0.0
2018-Feb-11 21:57N 51°16' E 004°21'0 0.0
2018-Feb-11 21:24N 51°16' E 004°21'0 0.0
2018-Feb-11 21:00N 51°16' E 004°21'0 0.0
2018-Feb-11 20:27N 51°16' E 004°21'0 0.0
2018-Feb-11 20:00N 51°16' E 004°21'0 0.0
2018-Feb-11 19:30N 51°16' E 004°21'0 0.0
2018-Feb-11 19:00N 51°16' E 004°21'0 0.0
2018-Feb-11 18:30N 51°16' E 004°21'0 0.0
2018-Feb-11 17:54N 51°16' E 004°21'0 0.0
2018-Feb-11 17:30N 51°16' E 004°21'0 0.0
2018-Feb-11 17:00N 51°16' E 004°21'0 0.0
2018-Feb-11 16:30N 51°16' E 004°21'0 0.0
2018-Feb-11 16:00N 51°16' E 004°21'0 0.0
2018-Feb-11 15:24N 51°16' E 004°21'0 0.0
2018-Feb-11 15:00N 51°16' E 004°21'0 0.0
2018-Feb-11 14:30N 51°16' E 004°21'0 0.0
2018-Feb-11 14:00N 51°16' E 004°21'0 0.0
2018-Feb-11 13:30N 51°16' E 004°21'0 0.0
2018-Feb-11 13:00N 51°16' E 004°21'0 0.0
2018-Feb-11 12:30N 51°16' E 004°21'0 0.0
2018-Feb-11 12:00N 51°16' E 004°21'0 0.0
2018-Feb-11 11:30N 51°16' E 004°21'0 0.0
2018-Feb-11 10:54N 51°16' E 004°21'0 0.0
2018-Feb-11 10:30N 51°16' E 004°21'0 0.0
2018-Feb-11 10:00N 51°16' E 004°21'0 0.0
2018-Feb-11 09:27N 51°16' E 004°21'0 0.0
2018-Feb-11 09:00N 51°16' E 004°21'0 0.0
2018-Feb-11 08:30N 51°16' E 004°21'0 0.0
2018-Feb-11 08:00N 51°16' E 004°21'0 0.0
2018-Feb-11 07:30N 51°16' E 004°21'0 0.0
2018-Feb-11 07:00N 51°16' E 004°21'0 0.0
2018-Feb-11 06:30N 51°16' E 004°21'0 0.0
2018-Feb-11 06:00N 51°16' E 004°21'0 0.0
2018-Feb-11 05:30N 51°16' E 004°21'0 0.0
2018-Feb-11 04:48N 51°16' E 004°21'0 0.0
2018-Feb-11 04:30N 51°16' E 004°21'0 0.0
2018-Feb-11 03:57N 51°16' E 004°21'0 0.0
2018-Feb-11 03:30N 51°16' E 004°21'0 0.0
2018-Feb-11 03:00N 51°16' E 004°21'0 0.0
2018-Feb-11 02:30N 51°16' E 004°21'0 0.0
2018-Feb-11 02:00N 51°16' E 004°21'0 0.0
2018-Feb-11 01:24N 51°16' E 004°21'0 0.0
2018-Feb-11 00:57N 51°16' E 004°21'0 0.0
2018-Feb-11 00:30N 51°16' E 004°21'0 0.0
2018-Feb-11 00:00N 51°16' E 004°21'0 0.0
2018-Feb-10 23:30N 51°16' E 004°21'0 0.0
2018-Feb-10 22:48N 51°16' E 004°21'0 0.0
2018-Feb-10 22:30N 51°16' E 004°21'0 0.0
2018-Feb-10 22:00N 51°16' E 004°21'0 0.0
2018-Feb-10 21:30N 51°16' E 004°21'0 0.0
2018-Feb-10 21:00N 51°16' E 004°21'0 0.0
2018-Feb-10 20:30N 51°16' E 004°21'0 0.0
2018-Feb-10 20:00N 51°16' E 004°21'0 0.0
2018-Feb-10 19:30N 51°16' E 004°21'0 0.0
2018-Feb-10 19:00N 51°16' E 004°21'0 0.0
2018-Feb-10 18:30N 51°16' E 004°21'0 0.0
2018-Feb-10 18:00N 51°16' E 004°21'0 0.0
2018-Feb-10 17:21N 51°16' E 004°21'0 0.0
2018-Feb-10 16:57N 51°16' E 004°21'0 0.0
2018-Feb-10 16:24N 51°16' E 004°21'0 0.0
2018-Feb-10 16:00N 51°16' E 004°21'0 0.0
2018-Feb-10 15:30N 51°16' E 004°21'0 0.0
2018-Feb-10 14:45N 51°16' E 004°21'0 0.0
2018-Feb-10 14:27N 51°16' E 004°21'0 0.0
2018-Feb-10 14:00N 51°16' E 004°21'0 0.0
2018-Feb-10 13:30N 51°16' E 004°21'0 0.0
2018-Feb-10 13:00N 51°16' E 004°21'0 0.0
2018-Feb-10 12:30N 51°16' E 004°21'0 0.0
2018-Feb-10 12:00N 51°16' E 004°21'0 0.0
2018-Feb-10 11:30N 51°16' E 004°21'0 0.0
2018-Feb-10 11:00N 51°16' E 004°21'0 0.0
2018-Feb-10 10:30N 51°16' E 004°21'0 0.0
2018-Feb-10 10:00N 51°16' E 004°21'0 0.0
2018-Feb-10 09:30N 51°16' E 004°21'0 0.0
2018-Feb-10 08:57N 51°16' E 004°21'0 0.0
2018-Feb-10 08:30N 51°16' E 004°21'0 0.0
2018-Feb-10 08:00N 51°16' E 004°21'0 0.0
2018-Feb-10 07:30N 51°16' E 004°21'0 0.0
2018-Feb-10 06:54N 51°16' E 004°21'0 0.0
2018-Feb-10 06:30N 51°16' E 004°21'0 0.0
2018-Feb-10 06:00N 51°16' E 004°21'0 0.0
2018-Feb-10 05:30N 51°16' E 004°21'0 0.3
2018-Feb-10 05:00N 51°16' E 004°22'1 2.7
2018-Feb-10 04:30N 51°17' E 004°20'2 4.8
2018-Feb-10 04:00N 51°19' E 004°19'0 0.4
2018-Feb-10 03:23N 51°20' E 004°18'0 0.0
2018-Feb-10 02:49N 51°20' E 004°18'0 0.0
2018-Feb-10 02:28N 51°20' E 004°18'0 0.0
2018-Feb-10 01:55N 51°20' E 004°18'0 0.0
2018-Feb-10 01:28N 51°20' E 004°18'0 0.0
2018-Feb-10 00:55N 51°20' E 004°18'0 0.0
2018-Feb-10 00:28N 51°20' E 004°18'0 0.0
2018-Feb-09 23:58N 51°20' E 004°18'0 0.0
2018-Feb-09 23:25N 51°20' E 004°18'0 0.0
2018-Feb-09 22:58N 51°20' E 004°18'0 0.0
2018-Feb-09 22:40N 51°20' E 004°18'  
Track history (hours):
 
Tides and Currents Weather Stations Pressure Air Temp Water Temp Dewpoint Dewpoint Depression Visibility Wind Speed Wind Dir Waves Ship Positions

M\t Procida

Last reported at 2018-Feb-19 17:04 UTC. Time now 2018-Feb-21 23:28 UTC.
Position N 56°02' W 003°42'.

Length 149 m; draft 8.6 m.

Type: Tanker. MMSI: 247258400.

Date/timePositionNaut miles runAvg speedWind from/ knotsBaromVisibWave heightAir tempDewpointWater temp
2018-Feb-19 17:04N 56°02' W 003°42'0 1.2
2018-Feb-19 17:00N 56°02' W 003°41'2 2.0
2018-Feb-19 15:53N 56°02' W 003°38'7 7.6
2018-Feb-19 15:00N 56°00' W 003°26'612.5
2018-Feb-19 14:30N 56°02' W 003°15'510.9
2018-Feb-19 14:00N 56°03' W 003°06'3 6.8
2018-Feb-19 13:30N 56°07' W 003°04'0 0.5
2018-Feb-19 12:59N 56°07' W 003°05'0 0.0
2018-Feb-19 12:29N 56°07' W 003°05'0 0.1
2018-Feb-19 11:59N 56°07' W 003°05'0 0.2
2018-Feb-19 11:29N 56°07' W 003°04'0 0.1
2018-Feb-19 10:59N 56°07' W 003°04'0 0.0
2018-Feb-19 10:29N 56°07' W 003°04'0 0.0
2018-Feb-19 09:59N 56°07' W 003°04'0 0.0
2018-Feb-19 09:29N 56°07' W 003°04'0 0.0
2018-Feb-19 08:59N 56°07' W 003°04'0 0.0
2018-Feb-19 08:29N 56°07' W 003°04'0 0.0
2018-Feb-19 07:59N 56°07' W 003°04'0 0.0
2018-Feb-19 07:29N 56°07' W 003°04'0 0.0
2018-Feb-19 06:59N 56°07' W 003°04'0 0.0
2018-Feb-19 06:29N 56°07' W 003°04'0 0.0
2018-Feb-19 05:59N 56°07' W 003°04'0 0.1
2018-Feb-19 05:29N 56°07' W 003°05'0 0.1
2018-Feb-19 04:59N 56°07' W 003°05'0 0.0
2018-Feb-19 04:29N 56°07' W 003°05'0 0.0
2018-Feb-19 03:59N 56°07' W 003°05'0 0.0
2018-Feb-19 03:29N 56°07' W 003°05'0 0.0
2018-Feb-19 02:59N 56°07' W 003°05'0 0.0
2018-Feb-19 02:29N 56°07' W 003°05'0 0.0
2018-Feb-19 01:59N 56°07' W 003°05'0 0.0
2018-Feb-19 01:29N 56°07' W 003°05'0 0.0
2018-Feb-19 00:59N 56°07' W 003°05'0 0.0
2018-Feb-19 00:29N 56°07' W 003°05'0 0.0
2018-Feb-18 23:59N 56°07' W 003°05'0 0.0
2018-Feb-18 23:29N 56°07' W 003°05'0 0.0
2018-Feb-18 22:59N 56°07' W 003°04'0 0.1
2018-Feb-18 22:29N 56°07' W 003°04'0 0.2
2018-Feb-18 21:59N 56°07' W 003°04'0 0.1
2018-Feb-18 21:29N 56°07' W 003°04'0 0.0
2018-Feb-18 20:59N 56°07' W 003°04'0 0.0
2018-Feb-18 20:29N 56°07' W 003°04'0 0.0
2018-Feb-18 19:59N 56°07' W 003°04'0 0.0
2018-Feb-18 19:29N 56°07' W 003°04'0 0.1
2018-Feb-18 18:59N 56°07' W 003°04'3 6.2
2018-Feb-18 18:30N 56°05' W 003°01'611.1
2018-Feb-18 18:00N 56°06' W 002°51'612.4
2018-Feb-18 17:30N 56°08' W 002°40'612.8
2018-Feb-18 17:01N 56°07' W 002°29'612.7
2018-Feb-18 16:30N 56°06' W 002°18'612.6
2018-Feb-18 16:00N 56°04' W 002°07'612.6
2018-Feb-18 15:30N 56°02' W 001°56'612.7
2018-Feb-18 15:00N 56°01' W 001°45'612.7
2018-Feb-18 14:30N 55°58' W 001°34'612.9
2018-Feb-18 14:00N 55°56' W 001°24'28710.4
2018-Feb-17 10:26N 51°46' E 002°38'512.0
2018-Feb-17 10:00N 51°42' E 002°41'611.0
2018-Feb-17 09:30N 51°36' E 002°43'511.1
2018-Feb-17 09:00N 51°31' E 002°41'611.6
2018-Feb-17 08:30N 51°25' E 002°43'5 9.9
2018-Feb-17 08:00N 51°22' E 002°49'713.4
2018-Feb-17 07:30N 51°24' E 002°59'713.3
2018-Feb-17 07:00N 51°24' E 003°10'714.6
2018-Feb-17 06:30N 51°25' E 003°22'714.7
2018-Feb-17 06:00N 51°26' E 003°33'5 9.6
2018-Feb-17 05:30N 51°26' E 003°41'611.9
2018-Feb-17 05:00N 51°21' E 003°47'611.9
2018-Feb-17 04:30N 51°23' E 003°56'4 8.3
2018-Feb-17 04:00N 51°25' E 004°02'5 9.3
2018-Feb-17 03:30N 51°22' E 004°08'3 6.7
2018-Feb-17 03:00N 51°22' E 004°13'3 5.4
2018-Feb-17 02:30N 51°21' E 004°17'0 0.0
2018-Feb-17 02:01N 51°21' E 004°17'0 0.7
2018-Feb-17 01:30N 51°21' E 004°18'1 2.5
2018-Feb-17 01:00N 51°20' E 004°19'2 4.7
2018-Feb-17 00:30N 51°17' E 004°20'1 2.5
2018-Feb-16 23:59N 51°16' E 004°21'0 0.0
2018-Feb-16 23:29N 51°16' E 004°21'0 0.0
2018-Feb-16 22:59N 51°16' E 004°21'0 0.0
2018-Feb-16 22:29N 51°16' E 004°21'0 0.0
2018-Feb-16 21:59N 51°16' E 004°21'0 0.0
2018-Feb-16 21:29N 51°16' E 004°21'0 0.0
2018-Feb-16 20:59N 51°16' E 004°21'0 0.0
2018-Feb-16 20:26N 51°16' E 004°21'0 0.0
2018-Feb-16 19:59N 51°16' E 004°21'0 0.0
2018-Feb-16 19:29N 51°16' E 004°21'0 0.0
2018-Feb-16 18:59N 51°16' E 004°21'0 0.0
2018-Feb-16 18:26N 51°16' E 004°21'0 0.0
2018-Feb-16 17:59N 51°16' E 004°21'0 0.0
2018-Feb-16 17:29N 51°16' E 004°21'0 0.0
2018-Feb-16 16:59N 51°16' E 004°21'0 0.0
2018-Feb-16 16:23N 51°16' E 004°21'0 0.0
2018-Feb-16 15:59N 51°16' E 004°21'0 0.0
2018-Feb-16 15:26N 51°16' E 004°21'0 0.0
2018-Feb-16 14:59N 51°16' E 004°21'0 0.0
2018-Feb-16 14:29N 51°16' E 004°21'0 0.0
2018-Feb-16 13:59N 51°16' E 004°21'0 0.0
2018-Feb-16 13:29N 51°16' E 004°21'0 0.0
2018-Feb-16 12:59N 51°16' E 004°21'0 0.0
2018-Feb-16 12:29N 51°16' E 004°21'0 0.0
2018-Feb-16 11:59N 51°16' E 004°21'0 0.0
2018-Feb-16 11:29N 51°16' E 004°21'0 0.0
2018-Feb-16 10:59N 51°16' E 004°21'0 0.0
2018-Feb-16 10:29N 51°16' E 004°21'0 0.0
2018-Feb-16 09:59N 51°16' E 004°21'0 0.0
2018-Feb-16 09:29N 51°16' E 004°21'0 0.0
2018-Feb-16 08:59N 51°16' E 004°21'0 0.0
2018-Feb-16 08:29N 51°16' E 004°21'0 0.0
2018-Feb-16 07:59N 51°16' E 004°21'0 0.0
2018-Feb-16 07:26N 51°16' E 004°21'0 0.0
2018-Feb-16 06:59N 51°16' E 004°21'0 0.0
2018-Feb-16 06:29N 51°16' E 004°21'0 0.0
2018-Feb-16 05:59N 51°16' E 004°21'0 0.0
2018-Feb-16 05:29N 51°16' E 004°21'0 0.0
2018-Feb-16 04:53N 51°16' E 004°21'0 0.0
2018-Feb-16 04:29N 51°16' E 004°21'0 0.0
2018-Feb-16 03:59N 51°16' E 004°21'0 0.0
2018-Feb-16 03:29N 51°16' E 004°21'0 0.0
2018-Feb-16 02:59N 51°16' E 004°21'0 0.0
2018-Feb-16 02:29N 51°16' E 004°21'0 0.0
2018-Feb-16 01:59N 51°16' E 004°21'0 0.0
2018-Feb-16 01:29N 51°16' E 004°21'0 0.0
2018-Feb-16 00:59N 51°16' E 004°21'0 0.0
2018-Feb-16 00:29N 51°16' E 004°21'0 0.6
2018-Feb-16 00:00N 51°16' E 004°21'3 6.1
2018-Feb-15 23:29N 51°19' E 004°19'2 3.1
2018-Feb-15 22:55N 51°21' E 004°18'0 0.0
2018-Feb-15 22:28N 51°21' E 004°18'0 0.0
2018-Feb-15 21:58N 51°21' E 004°18'0 0.0
2018-Feb-15 21:28N 51°21' E 004°18'0 0.0
2018-Feb-15 20:58N 51°21' E 004°18'0 0.0
2018-Feb-15 20:28N 51°21' E 004°18'0 0.0
2018-Feb-15 19:58N 51°21' E 004°18'0 0.0
2018-Feb-15 19:25N 51°21' E 004°18'0 0.0
2018-Feb-15 18:58N 51°21' E 004°18'0 0.0
2018-Feb-15 18:28N 51°21' E 004°18'0 0.0
2018-Feb-15 17:58N 51°21' E 004°18'0 0.0
2018-Feb-15 17:28N 51°21' E 004°18'0 0.0
2018-Feb-15 16:58N 51°21' E 004°18'0 0.0
2018-Feb-15 16:28N 51°21' E 004°18'0 0.0
2018-Feb-15 15:46N 51°21' E 004°18'0 0.0
2018-Feb-15 15:28N 51°21' E 004°18'0 0.0
2018-Feb-15 14:52N 51°21' E 004°18'0 0.0
2018-Feb-15 14:28N 51°21' E 004°18'0 0.0
2018-Feb-15 13:58N 51°21' E 004°18'0 0.0
2018-Feb-15 13:28N 51°21' E 004°18'0 0.0
2018-Feb-15 12:58N 51°21' E 004°18'0 0.0
2018-Feb-15 12:28N 51°21' E 004°18'0 0.0
2018-Feb-15 11:46N 51°21' E 004°18'0 0.0
2018-Feb-15 11:28N 51°21' E 004°18'0 0.0
2018-Feb-15 10:58N 51°21' E 004°18'0 0.0
2018-Feb-15 10:28N 51°21' E 004°18'0 0.0
2018-Feb-15 09:58N 51°21' E 004°18'0 0.0
2018-Feb-15 09:22N 51°21' E 004°18'0 0.0
2018-Feb-15 08:58N 51°21' E 004°18'0 0.0
2018-Feb-15 08:28N 51°21' E 004°18'0 0.0
2018-Feb-15 07:58N 51°21' E 004°18'0 0.0
2018-Feb-15 07:25N 51°21' E 004°18'0 0.0
2018-Feb-15 06:58N 51°21' E 004°18'0 0.0
2018-Feb-15 06:25N 51°21' E 004°18'0 0.0
2018-Feb-15 05:58N 51°21' E 004°18'0 0.0
2018-Feb-15 05:28N 51°21' E 004°18'0 0.0
2018-Feb-15 04:58N 51°21' E 004°18'0 0.0
2018-Feb-15 04:25N 51°21' E 004°18'0 0.0
2018-Feb-15 03:58N 51°21' E 004°18'0 0.0
2018-Feb-15 03:25N 51°21' E 004°18'0 0.0
2018-Feb-15 02:55N 51°21' E 004°18'0 0.0
2018-Feb-15 02:28N 51°21' E 004°18'0 0.0
2018-Feb-15 01:58N 51°21' E 004°18'0 0.0
2018-Feb-15 01:22N 51°21' E 004°18'0 0.0
2018-Feb-15 00:58N 51°21' E 004°18'0 0.0
2018-Feb-15 00:28N 51°21' E 004°18'0 0.0
2018-Feb-14 23:52N 51°21' E 004°18'0 0.0
2018-Feb-14 23:28N 51°21' E 004°18'0 0.0
2018-Feb-14 22:58N 51°21' E 004°18'0 0.0
2018-Feb-14 22:28N 51°21' E 004°18'0 0.0
2018-Feb-14 21:58N 51°21' E 004°18'0 0.0
2018-Feb-14 21:28N 51°21' E 004°18'0 0.0
2018-Feb-14 20:58N 51°21' E 004°18'0 0.0
2018-Feb-14 20:25N 51°21' E 004°18'0 0.0
2018-Feb-14 19:58N 51°21' E 004°18'0 0.0
2018-Feb-14 19:28N 51°21' E 004°18'0 0.0
2018-Feb-14 18:58N 51°21' E 004°18'0 0.0
2018-Feb-14 18:28N 51°21' E 004°18'0 0.0
2018-Feb-14 17:58N 51°21' E 004°18'0 0.0
2018-Feb-14 17:28N 51°21' E 004°18'0 0.0
2018-Feb-14 16:58N 51°21' E 004°18'0 0.0
2018-Feb-14 16:28N 51°21' E 004°18'0 0.0
2018-Feb-14 15:58N 51°21' E 004°18'0 0.0
2018-Feb-14 15:28N 51°21' E 004°18'0 0.0
2018-Feb-14 14:58N 51°21' E 004°18'0 0.0
2018-Feb-14 14:28N 51°21' E 004°18'0 0.0
2018-Feb-14 13:58N 51°21' E 004°18'0 0.0
2018-Feb-14 13:28N 51°21' E 004°18'0 0.0
2018-Feb-14 12:58N 51°21' E 004°18'0 0.0
2018-Feb-14 12:25N 51°21' E 004°18'0 0.0
2018-Feb-14 11:58N 51°21' E 004°18'0 0.0
2018-Feb-14 11:28N 51°21' E 004°18'0 0.0
2018-Feb-14 10:58N 51°21' E 004°18'0 0.0
2018-Feb-14 10:25N 51°21' E 004°18'0 0.0
2018-Feb-14 09:58N 51°21' E 004°18'0 0.0
2018-Feb-14 09:28N 51°21' E 004°18'0 0.0
2018-Feb-14 08:58N 51°21' E 004°18'0 0.0
2018-Feb-14 08:28N 51°21' E 004°18'0 0.0
2018-Feb-14 07:58N 51°21' E 004°18'0 0.0
2018-Feb-14 07:28N 51°21' E 004°18'0 0.0
2018-Feb-14 06:58N 51°21' E 004°18'0 0.0
2018-Feb-14 06:28N 51°21' E 004°18'0 0.0
2018-Feb-14 05:58N 51°21' E 004°18'0 0.0
2018-Feb-14 05:28N 51°21' E 004°18'0 0.0
2018-Feb-14 04:55N 51°21' E 004°18'0 0.0
2018-Feb-14 04:28N 51°21' E 004°18'0 0.0
2018-Feb-14 03:58N 51°21' E 004°18'0 0.0
2018-Feb-14 03:28N 51°21' E 004°18'0 0.0
2018-Feb-14 02:58N 51°21' E 004°18'0 0.0
2018-Feb-14 02:28N 51°21' E 004°18'0 0.0
2018-Feb-14 01:58N 51°21' E 004°18'0 0.0
2018-Feb-14 01:28N 51°21' E 004°18'0 0.0
2018-Feb-14 00:58N 51°21' E 004°18'0 0.0
2018-Feb-14 00:25N 51°21' E 004°18'0 0.0
2018-Feb-13 23:58N 51°21' E 004°18'0 0.0
2018-Feb-13 23:28N 51°21' E 004°18'0 0.0
2018-Feb-13 22:58N 51°21' E 004°18'0 0.0
2018-Feb-13 22:28N 51°21' E 004°18'0 0.0
2018-Feb-13 21:58N 51°21' E 004°18'0 0.0
2018-Feb-13 21:16N 51°21' E 004°18'0 0.0
2018-Feb-13 20:58N 51°21' E 004°18'0 0.0
2018-Feb-13 20:28N 51°21' E 004°18'0 0.0
2018-Feb-13 19:58N 51°21' E 004°18'0 0.0
2018-Feb-13 19:28N 51°21' E 004°18'0 0.0
2018-Feb-13 18:58N 51°21' E 004°18'0 0.0
2018-Feb-13 18:28N 51°21' E 004°18'0 0.0
2018-Feb-13 17:58N 51°21' E 004°18'0 0.0
2018-Feb-13 17:28N 51°21' E 004°18'0 0.0
2018-Feb-13 16:58N 51°21' E 004°18'0 0.0
2018-Feb-13 16:25N 51°21' E 004°18'0 0.0
2018-Feb-13 15:55N 51°21' E 004°18'0 0.0
2018-Feb-13 15:28N 51°21' E 004°18'0 0.0
2018-Feb-13 14:58N 51°21' E 004°18'0 0.0
2018-Feb-13 14:25N 51°21' E 004°18'0 0.0
2018-Feb-13 13:58N 51°21' E 004°18'0 0.0
2018-Feb-13 13:22N 51°21' E 004°18'0 0.0
2018-Feb-13 12:58N 51°21' E 004°18'0 0.0
2018-Feb-13 12:28N 51°21' E 004°18'0 0.0
2018-Feb-13 11:58N 51°21' E 004°18'0 0.0
2018-Feb-13 11:28N 51°21' E 004°18'0 0.0
2018-Feb-13 10:58N 51°21' E 004°18'0 0.0
2018-Feb-13 10:28N 51°21' E 004°18'0 0.0
2018-Feb-13 09:58N 51°21' E 004°18'0 0.0
2018-Feb-13 09:28N 51°21' E 004°18'0 0.0
2018-Feb-13 08:55N 51°21' E 004°18'0 0.0
2018-Feb-13 08:28N 51°21' E 004°18'0 0.0
2018-Feb-13 07:59N 51°21' E 004°18'1 2.0
2018-Feb-13 07:31N 51°20' E 004°18'3 7.0
2018-Feb-13 07:01N 51°17' E 004°21'1 1.4
2018-Feb-13 06:25N 51°16' E 004°21'0 0.0
2018-Feb-13 05:55N 51°16' E 004°21'0 0.0
2018-Feb-13 05:28N 51°16' E 004°21'0 0.0
2018-Feb-13 04:58N 51°16' E 004°21'0 0.0
2018-Feb-13 04:28N 51°16' E 004°21'0 0.0
2018-Feb-13 03:58N 51°16' E 004°21'0 0.0
2018-Feb-13 03:28N 51°16' E 004°21'0 0.0
2018-Feb-13 02:58N 51°16' E 004°21'0 0.0
2018-Feb-13 02:25N 51°16' E 004°21'0 0.0
2018-Feb-13 01:58N 51°16' E 004°21'0 0.0
2018-Feb-13 01:28N 51°16' E 004°21'0 0.0
2018-Feb-13 00:58N 51°16' E 004°21'0 0.0
2018-Feb-13 00:28N 51°16' E 004°21'0 0.0
2018-Feb-12 23:58N 51°16' E 004°21'0 0.0
2018-Feb-12 23:28N 51°16' E 004°21'0 0.0
2018-Feb-12 22:58N 51°16' E 004°21'0 0.0
2018-Feb-12 22:29N 51°16' E 004°21'0 0.0
2018-Feb-12 22:00N 51°16' E 004°21'0 0.0
2018-Feb-12 21:30N 51°16' E 004°21'0 0.0
2018-Feb-12 21:00N 51°16' E 004°21'0 0.0
2018-Feb-12 20:30N 51°16' E 004°21'0 0.0
2018-Feb-12 19:57N 51°16' E 004°21'0 0.0
2018-Feb-12 19:27N 51°16' E 004°21'0 0.0
2018-Feb-12 19:00N 51°16' E 004°21'0 0.0
2018-Feb-12 18:30N 51°16' E 004°21'0 0.0
2018-Feb-12 18:00N 51°16' E 004°21'0 0.0
2018-Feb-12 17:30N 51°16' E 004°21'0 0.0
2018-Feb-12 17:00N 51°16' E 004°21'0 0.0
2018-Feb-12 16:30N 51°16' E 004°21'0 0.0
2018-Feb-12 16:00N 51°16' E 004°21'0 0.0
2018-Feb-12 15:18N 51°16' E 004°21'0 0.0
2018-Feb-12 14:57N 51°16' E 004°21'0 0.0
2018-Feb-12 14:27N 51°16' E 004°21'0 0.0
2018-Feb-12 14:00N 51°16' E 004°21'0 0.0
2018-Feb-12 13:27N 51°16' E 004°21'0 0.0
2018-Feb-12 13:00N 51°16' E 004°21'0 0.0
2018-Feb-12 12:27N 51°16' E 004°21'0 0.0
2018-Feb-12 11:57N 51°16' E 004°21'0 0.0
2018-Feb-12 11:27N 51°16' E 004°21'0 0.0
2018-Feb-12 11:00N 51°16' E 004°21'0 0.0
2018-Feb-12 10:30N 51°16' E 004°21'0 0.0
2018-Feb-12 10:00N 51°16' E 004°21'0 0.0
2018-Feb-12 09:30N 51°16' E 004°21'0 0.0
2018-Feb-12 09:00N 51°16' E 004°21'0 0.0
2018-Feb-12 08:30N 51°16' E 004°21'0 0.0
2018-Feb-12 08:00N 51°16' E 004°21'0 0.0
2018-Feb-12 07:27N 51°16' E 004°21'0 0.0
2018-Feb-12 07:00N 51°16' E 004°21'0 0.0
2018-Feb-12 06:30N 51°16' E 004°21'0 0.0
2018-Feb-12 05:57N 51°16' E 004°21'0 0.0
2018-Feb-12 05:30N 51°16' E 004°21'0 0.0
2018-Feb-12 04:57N 51°16' E 004°21'0 0.0
2018-Feb-12 04:30N 51°16' E 004°21'0 0.0
2018-Feb-12 03:54N 51°16' E 004°21'0 0.0
2018-Feb-12 03:30N 51°16' E 004°21'0 0.0
2018-Feb-12 03:00N 51°16' E 004°21'0 0.0
2018-Feb-12 02:30N 51°16' E 004°21'0 0.0
2018-Feb-12 02:00N 51°16' E 004°21'0 0.0
2018-Feb-12 01:30N 51°16' E 004°21'0 0.0
2018-Feb-12 01:00N 51°16' E 004°21'0 0.0
2018-Feb-12 00:30N 51°16' E 004°21'0 0.0
2018-Feb-12 00:00N 51°16' E 004°21'0 0.0
2018-Feb-11 23:30N 51°16' E 004°21'0 0.0
2018-Feb-11 23:00N 51°16' E 004°21'0 0.0
2018-Feb-11 22:30N 51°16' E 004°21'0 0.0
2018-Feb-11 21:57N 51°16' E 004°21'0 0.0
2018-Feb-11 21:24N 51°16' E 004°21'0 0.0
2018-Feb-11 21:00N 51°16' E 004°21'0 0.0
2018-Feb-11 20:27N 51°16' E 004°21'0 0.0
2018-Feb-11 20:00N 51°16' E 004°21'0 0.0
2018-Feb-11 19:30N 51°16' E 004°21'0 0.0
2018-Feb-11 19:00N 51°16' E 004°21'0 0.0
2018-Feb-11 18:30N 51°16' E 004°21'0 0.0
2018-Feb-11 17:54N 51°16' E 004°21'0 0.0
2018-Feb-11 17:30N 51°16' E 004°21'0 0.0
2018-Feb-11 17:00N 51°16' E 004°21'0 0.0
2018-Feb-11 16:30N 51°16' E 004°21'0 0.0
2018-Feb-11 16:00N 51°16' E 004°21'0 0.0
2018-Feb-11 15:24N 51°16' E 004°21'0 0.0
2018-Feb-11 15:00N 51°16' E 004°21'0 0.0
2018-Feb-11 14:30N 51°16' E 004°21'0 0.0
2018-Feb-11 14:00N 51°16' E 004°21'0 0.0
2018-Feb-11 13:30N 51°16' E 004°21'0 0.0
2018-Feb-11 13:00N 51°16' E 004°21'0 0.0
2018-Feb-11 12:30N 51°16' E 004°21'0 0.0
2018-Feb-11 12:00N 51°16' E 004°21'0 0.0
2018-Feb-11 11:30N 51°16' E 004°21'0 0.0
2018-Feb-11 10:54N 51°16' E 004°21'0 0.0
2018-Feb-11 10:30N 51°16' E 004°21'0 0.0
2018-Feb-11 10:00N 51°16' E 004°21'0 0.0
2018-Feb-11 09:27N 51°16' E 004°21'0 0.0
2018-Feb-11 09:00N 51°16' E 004°21'0 0.0
2018-Feb-11 08:30N 51°16' E 004°21'0 0.0
2018-Feb-11 08:00N 51°16' E 004°21'0 0.0
2018-Feb-11 07:30N 51°16' E 004°21'0 0.0
2018-Feb-11 07:00N 51°16' E 004°21'0 0.0
2018-Feb-11 06:30N 51°16' E 004°21'0 0.0
2018-Feb-11 06:00N 51°16' E 004°21'0 0.0
2018-Feb-11 05:30N 51°16' E 004°21'0 0.0
2018-Feb-11 04:48N 51°16' E 004°21'0 0.0
2018-Feb-11 04:30N 51°16' E 004°21'0 0.0
2018-Feb-11 03:57N 51°16' E 004°21'0 0.0
2018-Feb-11 03:30N 51°16' E 004°21'0 0.0
2018-Feb-11 03:00N 51°16' E 004°21'0 0.0
2018-Feb-11 02:30N 51°16' E 004°21'0 0.0
2018-Feb-11 02:00N 51°16' E 004°21'0 0.0
2018-Feb-11 01:24N 51°16' E 004°21'0 0.0
2018-Feb-11 00:57N 51°16' E 004°21'0 0.0
2018-Feb-11 00:30N 51°16' E 004°21'0 0.0
2018-Feb-11 00:00N 51°16' E 004°21'0 0.0
2018-Feb-10 23:30N 51°16' E 004°21'0 0.0
2018-Feb-10 22:48N 51°16' E 004°21'0 0.0
2018-Feb-10 22:30N 51°16' E 004°21'0 0.0
2018-Feb-10 22:00N 51°16' E 004°21'0 0.0
2018-Feb-10 21:30N 51°16' E 004°21'0 0.0
2018-Feb-10 21:00N 51°16' E 004°21'0 0.0
2018-Feb-10 20:30N 51°16' E 004°21'0 0.0
2018-Feb-10 20:00N 51°16' E 004°21'0 0.0
2018-Feb-10 19:30N 51°16' E 004°21'0 0.0
2018-Feb-10 19:00N 51°16' E 004°21'0 0.0
2018-Feb-10 18:30N 51°16' E 004°21'0 0.0
2018-Feb-10 18:00N 51°16' E 004°21'0 0.0
2018-Feb-10 17:21N 51°16' E 004°21'0 0.0
2018-Feb-10 16:57N 51°16' E 004°21'0 0.0
2018-Feb-10 16:24N 51°16' E 004°21'0 0.0
2018-Feb-10 16:00N 51°16' E 004°21'0 0.0
2018-Feb-10 15:30N 51°16' E 004°21'0 0.0
2018-Feb-10 14:45N 51°16' E 004°21'0 0.0
2018-Feb-10 14:27N 51°16' E 004°21'0 0.0
2018-Feb-10 14:00N 51°16' E 004°21'0 0.0
2018-Feb-10 13:30N 51°16' E 004°21'0 0.0
2018-Feb-10 13:00N 51°16' E 004°21'0 0.0
2018-Feb-10 12:30N 51°16' E 004°21'0 0.0
2018-Feb-10 12:00N 51°16' E 004°21'0 0.0
2018-Feb-10 11:30N 51°16' E 004°21'0 0.0
2018-Feb-10 11:00N 51°16' E 004°21'0 0.0
2018-Feb-10 10:30N 51°16' E 004°21'0 0.0
2018-Feb-10 10:00N 51°16' E 004°21'0 0.0
2018-Feb-10 09:30N 51°16' E 004°21'0 0.0
2018-Feb-10 08:57N 51°16' E 004°21'0 0.0
2018-Feb-10 08:30N 51°16' E 004°21'0 0.0
2018-Feb-10 08:00N 51°16' E 004°21'0 0.0
2018-Feb-10 07:30N 51°16' E 004°21'0 0.0
2018-Feb-10 06:54N 51°16' E 004°21'0 0.0
2018-Feb-10 06:30N 51°16' E 004°21'0 0.0
2018-Feb-10 06:00N 51°16' E 004°21'0 0.0
2018-Feb-10 05:30N 51°16' E 004°21'0 0.3
2018-Feb-10 05:00N 51°16' E 004°22'1 2.7
2018-Feb-10 04:30N 51°17' E 004°20'2 4.8
2018-Feb-10 04:00N 51°19' E 004°19'0 0.4
2018-Feb-10 03:23N 51°20' E 004°18'0 0.0
2018-Feb-10 02:49N 51°20' E 004°18'0 0.0
2018-Feb-10 02:28N 51°20' E 004°18'0 0.0
2018-Feb-10 01:55N 51°20' E 004°18'0 0.0
2018-Feb-10 01:28N 51°20' E 004°18'0 0.0
2018-Feb-10 00:55N 51°20' E 004°18'0 0.0
2018-Feb-10 00:28N 51°20' E 004°18'0 0.0
2018-Feb-09 23:58N 51°20' E 004°18'0 0.0
2018-Feb-09 23:25N 51°20' E 004°18'0 0.0
2018-Feb-09 22:58N 51°20' E 004°18'0 0.0
2018-Feb-09 22:40N 51°20' E 004°18'  

Dump ship's entire track history